sensor_id;sensor_type;location;lat;lon;timestamp;P1;durP1;ratioP1;P2;durP2;ratioP2
19951;SDS011;10137;49.406;19.484;2023-03-21T00:00:20;32.80;;;20.17;;
19951;SDS011;10137;49.406;19.484;2023-03-21T00:02:48;39.87;;;21.27;;
19951;SDS011;10137;49.406;19.484;2023-03-21T00:05:16;32.77;;;20.33;;
19951;SDS011;10137;49.406;19.484;2023-03-21T00:07:45;34.40;;;20.33;;
19951;SDS011;10137;49.406;19.484;2023-03-21T00:10:14;39.20;;;21.60;;
19951;SDS011;10137;49.406;19.484;2023-03-21T00:12:42;39.70;;;20.97;;
19951;SDS011;10137;49.406;19.484;2023-03-21T00:15:11;37.97;;;20.77;;
19951;SDS011;10137;49.406;19.484;2023-03-21T00:17:39;35.60;;;20.30;;
19951;SDS011;10137;49.406;19.484;2023-03-21T00:20:10;34.00;;;20.50;;
19951;SDS011;10137;49.406;19.484;2023-03-21T00:22:40;37.33;;;20.40;;
19951;SDS011;10137;49.406;19.484;2023-03-21T00:25:09;33.27;;;20.07;;
19951;SDS011;10137;49.406;19.484;2023-03-21T00:27:37;32.67;;;19.30;;
19951;SDS011;10137;49.406;19.484;2023-03-21T00:30:04;35.00;;;20.00;;
19951;SDS011;10137;49.406;19.484;2023-03-21T00:32:35;31.20;;;19.00;;
19951;SDS011;10137;49.406;19.484;2023-03-21T00:35:03;33.53;;;19.33;;
19951;SDS011;10137;49.406;19.484;2023-03-21T00:37:31;35.77;;;19.83;;
19951;SDS011;10137;49.406;19.484;2023-03-21T00:40:00;30.53;;;19.53;;
19951;SDS011;10137;49.406;19.484;2023-03-21T00:42:28;31.97;;;19.13;;
19951;SDS011;10137;49.406;19.484;2023-03-21T00:44:56;34.00;;;19.50;;
19951;SDS011;10137;49.406;19.484;2023-03-21T00:47:24;32.17;;;19.40;;
19951;SDS011;10137;49.406;19.484;2023-03-21T00:49:52;34.13;;;19.43;;
19951;SDS011;10137;49.406;19.484;2023-03-21T00:52:21;33.57;;;20.00;;
19951;SDS011;10137;49.406;19.484;2023-03-21T00:54:53;32.20;;;19.37;;
19951;SDS011;10137;49.406;19.484;2023-03-21T00:57:21;33.07;;;19.53;;
19951;SDS011;10137;49.406;19.484;2023-03-21T00:59:49;31.17;;;18.33;;
19951;SDS011;10137;49.406;19.484;2023-03-21T01:02:17;35.27;;;20.53;;
19951;SDS011;10137;49.406;19.484;2023-03-21T01:04:48;36.10;;;19.77;;
19951;SDS011;10137;49.406;19.484;2023-03-21T01:07:21;33.97;;;20.23;;
19951;SDS011;10137;49.406;19.484;2023-03-21T01:09:49;31.87;;;19.47;;
19951;SDS011;10137;49.406;19.484;2023-03-21T01:12:17;30.47;;;18.80;;
19951;SDS011;10137;49.406;19.484;2023-03-21T01:14:46;35.17;;;19.80;;
19951;SDS011;10137;49.406;19.484;2023-03-21T01:17:14;32.23;;;19.03;;
19951;SDS011;10137;49.406;19.484;2023-03-21T01:19:42;32.97;;;18.57;;
19951;SDS011;10137;49.406;19.484;2023-03-21T01:22:11;30.97;;;18.73;;
19951;SDS011;10137;49.406;19.484;2023-03-21T01:24:40;31.67;;;18.80;;
19951;SDS011;10137;49.406;19.484;2023-03-21T01:27:09;34.03;;;19.50;;
19951;SDS011;10137;49.406;19.484;2023-03-21T01:29:36;32.33;;;19.67;;
19951;SDS011;10137;49.406;19.484;2023-03-21T01:32:08;35.87;;;18.93;;
19951;SDS011;10137;49.406;19.484;2023-03-21T01:34:36;33.60;;;19.33;;
19951;SDS011;10137;49.406;19.484;2023-03-21T01:37:05;33.53;;;19.13;;
19951;SDS011;10137;49.406;19.484;2023-03-21T01:39:33;30.23;;;18.53;;
19951;SDS011;10137;49.406;19.484;2023-03-21T01:42:02;32.73;;;19.80;;
19951;SDS011;10137;49.406;19.484;2023-03-21T01:44:30;33.43;;;19.13;;
19951;SDS011;10137;49.406;19.484;2023-03-21T01:46:58;36.37;;;19.07;;
19951;SDS011;10137;49.406;19.484;2023-03-21T01:49:28;32.17;;;18.47;;
19951;SDS011;10137;49.406;19.484;2023-03-21T01:52:00;32.40;;;18.73;;
19951;SDS011;10137;49.406;19.484;2023-03-21T01:54:32;30.13;;;18.63;;
19951;SDS011;10137;49.406;19.484;2023-03-21T01:57:06;30.00;;;18.73;;
19951;SDS011;10137;49.406;19.484;2023-03-21T01:59:36;37.10;;;18.30;;
19951;SDS011;10137;49.406;19.484;2023-03-21T02:02:07;28.80;;;17.87;;
19951;SDS011;10137;49.406;19.484;2023-03-21T02:04:38;30.83;;;18.43;;
19951;SDS011;10137;49.406;19.484;2023-03-21T02:07:08;28.73;;;17.90;;
19951;SDS011;10137;49.406;19.484;2023-03-21T02:09:41;31.03;;;17.40;;
19951;SDS011;10137;49.406;19.484;2023-03-21T02:12:14;28.40;;;17.00;;
19951;SDS011;10137;49.406;19.484;2023-03-21T02:14:43;25.73;;;16.90;;
19951;SDS011;10137;49.406;19.484;2023-03-21T02:17:15;27.30;;;16.93;;
19951;SDS011;10137;49.406;19.484;2023-03-21T02:23:08;26.17;;;16.20;;
19951;SDS011;10137;49.406;19.484;2023-03-21T02:26:04;28.37;;;16.43;;
19951;SDS011;10137;49.406;19.484;2023-03-21T02:28:48;25.60;;;15.93;;
19951;SDS011;10137;49.406;19.484;2023-03-21T02:31:25;26.10;;;15.63;;
19951;SDS011;10137;49.406;19.484;2023-03-21T02:34:26;25.23;;;15.77;;
19951;SDS011;10137;49.406;19.484;2023-03-21T02:37:16;25.33;;;15.67;;
19951;SDS011;10137;49.406;19.484;2023-03-21T02:39:50;28.17;;;17.47;;
19951;SDS011;10137;49.406;19.484;2023-03-21T02:42:25;25.57;;;15.80;;
19951;SDS011;10137;49.406;19.484;2023-03-21T02:45:00;27.47;;;16.10;;
19951;SDS011;10137;49.406;19.484;2023-03-21T02:47:32;28.40;;;18.50;;
19951;SDS011;10137;49.406;19.484;2023-03-21T02:50:06;26.63;;;17.30;;
19951;SDS011;10137;49.406;19.484;2023-03-21T02:52:40;24.70;;;15.63;;
19951;SDS011;10137;49.406;19.484;2023-03-21T02:55:13;16.50;;;10.60;;
19951;SDS011;10137;49.406;19.484;2023-03-21T02:57:44;17.93;;;11.40;;
19951;SDS011;10137;49.406;19.484;2023-03-21T03:00:15;26.43;;;17.07;;
19951;SDS011;10137;49.406;19.484;2023-03-21T03:02:46;28.67;;;17.43;;
19951;SDS011;10137;49.406;19.484;2023-03-21T03:05:16;26.80;;;17.43;;
19951;SDS011;10137;49.406;19.484;2023-03-21T03:10:47;25.90;;;15.97;;
19951;SDS011;10137;49.406;19.484;2023-03-21T03:13:34;25.97;;;16.60;;
19951;SDS011;10137;49.406;19.484;2023-03-21T03:16:15;29.63;;;17.40;;
19951;SDS011;10137;49.406;19.484;2023-03-21T03:18:52;59.50;;;32.27;;
19951;SDS011;10137;49.406;19.484;2023-03-21T03:21:23;45.80;;;25.30;;
19951;SDS011;10137;49.406;19.484;2023-03-21T03:23:58;36.00;;;21.37;;
19951;SDS011;10137;49.406;19.484;2023-03-21T03:26:30;29.67;;;18.23;;
19951;SDS011;10137;49.406;19.484;2023-03-21T03:29:04;26.60;;;16.30;;
19951;SDS011;10137;49.406;19.484;2023-03-21T03:31:39;24.80;;;16.57;;
19951;SDS011;10137;49.406;19.484;2023-03-21T03:34:14;24.43;;;16.17;;
19951;SDS011;10137;49.406;19.484;2023-03-21T03:36:47;25.47;;;16.20;;
19951;SDS011;10137;49.406;19.484;2023-03-21T03:39:23;26.43;;;16.00;;
19951;SDS011;10137;49.406;19.484;2023-03-21T03:41:58;25.47;;;16.70;;
19951;SDS011;10137;49.406;19.484;2023-03-21T03:44:30;21.67;;;15.70;;
19951;SDS011;10137;49.406;19.484;2023-03-21T03:47:00;23.40;;;15.83;;
19951;SDS011;10137;49.406;19.484;2023-03-21T03:49:33;36.33;;;24.73;;
19951;SDS011;10137;49.406;19.484;2023-03-21T03:52:06;30.63;;;19.23;;
19951;SDS011;10137;49.406;19.484;2023-03-21T03:54:41;24.33;;;16.77;;
19951;SDS011;10137;49.406;19.484;2023-03-21T03:57:11;24.30;;;15.20;;
19951;SDS011;10137;49.406;19.484;2023-03-21T03:59:41;25.27;;;15.27;;
19951;SDS011;10137;49.406;19.484;2023-03-21T04:02:11;23.67;;;14.40;;
19951;SDS011;10137;49.406;19.484;2023-03-21T04:04:40;21.53;;;14.77;;
19951;SDS011;10137;49.406;19.484;2023-03-21T04:07:08;23.53;;;14.33;;
19951;SDS011;10137;49.406;19.484;2023-03-21T04:09:35;24.10;;;15.30;;
19951;SDS011;10137;49.406;19.484;2023-03-21T04:12:07;22.10;;;15.10;;
19951;SDS011;10137;49.406;19.484;2023-03-21T04:14:35;24.23;;;15.33;;
19951;SDS011;10137;49.406;19.484;2023-03-21T04:17:03;25.73;;;15.50;;
19951;SDS011;10137;49.406;19.484;2023-03-21T04:19:31;22.73;;;14.87;;
19951;SDS011;10137;49.406;19.484;2023-03-21T04:21:58;26.60;;;15.97;;
19951;SDS011;10137;49.406;19.484;2023-03-21T04:24:25;22.57;;;14.63;;
19951;SDS011;10137;49.406;19.484;2023-03-21T04:26:59;18.73;;;13.33;;
19951;SDS011;10137;49.406;19.484;2023-03-21T04:29:27;24.90;;;14.50;;
19951;SDS011;10137;49.406;19.484;2023-03-21T04:31:55;19.57;;;13.93;;
19951;SDS011;10137;49.406;19.484;2023-03-21T04:34:25;26.13;;;15.87;;
19951;SDS011;10137;49.406;19.484;2023-03-21T04:36:53;22.77;;;14.80;;
19951;SDS011;10137;49.406;19.484;2023-03-21T04:39:21;79.77;;;48.40;;
19951;SDS011;10137;49.406;19.484;2023-03-21T04:41:50;45.93;;;29.53;;
19951;SDS011;10137;49.406;19.484;2023-03-21T04:44:18;44.50;;;25.70;;
19951;SDS011;10137;49.406;19.484;2023-03-21T04:46:48;25.17;;;16.43;;
19951;SDS011;10137;49.406;19.484;2023-03-21T04:49:17;43.10;;;31.10;;
19951;SDS011;10137;49.406;19.484;2023-03-21T04:51:45;31.27;;;23.00;;
19951;SDS011;10137;49.406;19.484;2023-03-21T04:54:13;31.23;;;18.90;;
19951;SDS011;10137;49.406;19.484;2023-03-21T04:56:42;28.73;;;17.60;;
19951;SDS011;10137;49.406;19.484;2023-03-21T04:59:11;26.73;;;16.20;;
19951;SDS011;10137;49.406;19.484;2023-03-21T05:01:40;26.37;;;16.73;;
19951;SDS011;10137;49.406;19.484;2023-03-21T05:04:10;26.30;;;16.90;;
19951;SDS011;10137;49.406;19.484;2023-03-21T05:06:39;25.53;;;16.47;;
19951;SDS011;10137;49.406;19.484;2023-03-21T05:09:09;25.90;;;16.47;;
19951;SDS011;10137;49.406;19.484;2023-03-21T05:11:37;34.90;;;21.73;;
19951;SDS011;10137;49.406;19.484;2023-03-21T05:14:07;36.23;;;22.87;;
19951;SDS011;10137;49.406;19.484;2023-03-21T05:16:37;41.07;;;25.27;;
19951;SDS011;10137;49.406;19.484;2023-03-21T05:19:15;37.47;;;22.87;;
19951;SDS011;10137;49.406;19.484;2023-03-21T05:21:44;33.17;;;21.80;;
19951;SDS011;10137;49.406;19.484;2023-03-21T05:24:12;33.97;;;22.43;;
19951;SDS011;10137;49.406;19.484;2023-03-21T05:26:46;35.50;;;22.53;;
19951;SDS011;10137;49.406;19.484;2023-03-21T05:29:21;31.90;;;18.40;;
19951;SDS011;10137;49.406;19.484;2023-03-21T05:31:48;25.23;;;16.77;;
19951;SDS011;10137;49.406;19.484;2023-03-21T05:34:23;27.00;;;19.03;;
19951;SDS011;10137;49.406;19.484;2023-03-21T05:36:52;34.80;;;23.73;;
19951;SDS011;10137;49.406;19.484;2023-03-21T05:39:21;35.40;;;23.63;;
19951;SDS011;10137;49.406;19.484;2023-03-21T05:41:49;31.43;;;20.03;;
19951;SDS011;10137;49.406;19.484;2023-03-21T05:44:16;43.23;;;26.30;;
19951;SDS011;10137;49.406;19.484;2023-03-21T05:46:45;41.57;;;25.37;;
19951;SDS011;10137;49.406;19.484;2023-03-21T05:49:13;38.40;;;23.17;;
19951;SDS011;10137;49.406;19.484;2023-03-21T05:51:43;38.03;;;22.43;;
19951;SDS011;10137;49.406;19.484;2023-03-21T05:54:12;34.63;;;20.60;;
19951;SDS011;10137;49.406;19.484;2023-03-21T05:56:42;29.07;;;18.33;;
19951;SDS011;10137;49.406;19.484;2023-03-21T05:59:10;28.00;;;16.50;;
19951;SDS011;10137;49.406;19.484;2023-03-21T06:01:37;28.30;;;17.93;;
19951;SDS011;10137;49.406;19.484;2023-03-21T06:04:08;27.63;;;17.03;;
19951;SDS011;10137;49.406;19.484;2023-03-21T06:06:36;27.37;;;16.53;;
19951;SDS011;10137;49.406;19.484;2023-03-21T06:09:09;24.03;;;14.10;;
19951;SDS011;10137;49.406;19.484;2023-03-21T06:11:39;19.47;;;13.73;;
19951;SDS011;10137;49.406;19.484;2023-03-21T06:14:13;25.23;;;15.30;;
19951;SDS011;10137;49.406;19.484;2023-03-21T06:16:41;20.47;;;14.37;;
19951;SDS011;10137;49.406;19.484;2023-03-21T06:19:13;23.93;;;15.77;;
19951;SDS011;10137;49.406;19.484;2023-03-21T06:21:41;25.23;;;17.13;;
19951;SDS011;10137;49.406;19.484;2023-03-21T06:24:13;26.63;;;17.30;;
19951;SDS011;10137;49.406;19.484;2023-03-21T06:26:41;25.10;;;15.90;;
19951;SDS011;10137;49.406;19.484;2023-03-21T06:29:10;26.37;;;19.57;;
19951;SDS011;10137;49.406;19.484;2023-03-21T06:31:39;38.10;;;26.00;;
19951;SDS011;10137;49.406;19.484;2023-03-21T06:34:08;40.10;;;24.80;;
19951;SDS011;10137;49.406;19.484;2023-03-21T06:36:37;31.53;;;21.23;;
19951;SDS011;10137;49.406;19.484;2023-03-21T06:39:05;32.37;;;20.47;;
19951;SDS011;10137;49.406;19.484;2023-03-21T06:41:35;33.37;;;21.53;;
19951;SDS011;10137;49.406;19.484;2023-03-21T06:44:03;50.87;;;29.53;;
19951;SDS011;10137;49.406;19.484;2023-03-21T06:46:31;28.87;;;18.77;;
19951;SDS011;10137;49.406;19.484;2023-03-21T06:48:59;29.20;;;17.90;;
19951;SDS011;10137;49.406;19.484;2023-03-21T06:51:30;26.37;;;17.17;;
19951;SDS011;10137;49.406;19.484;2023-03-21T06:53:58;40.17;;;28.07;;
19951;SDS011;10137;49.406;19.484;2023-03-21T06:56:26;37.47;;;26.83;;
19951;SDS011;10137;49.406;19.484;2023-03-21T06:58:56;35.63;;;22.63;;
19951;SDS011;10137;49.406;19.484;2023-03-21T07:01:24;32.33;;;20.97;;
19951;SDS011;10137;49.406;19.484;2023-03-21T07:03:53;33.47;;;20.87;;
19951;SDS011;10137;49.406;19.484;2023-03-21T07:06:22;33.97;;;21.43;;
19951;SDS011;10137;49.406;19.484;2023-03-21T07:08:52;33.77;;;22.00;;
19951;SDS011;10137;49.406;19.484;2023-03-21T07:11:21;38.37;;;22.90;;
19951;SDS011;10137;49.406;19.484;2023-03-21T07:13:50;37.13;;;23.63;;
19951;SDS011;10137;49.406;19.484;2023-03-21T07:16:20;38.60;;;23.00;;
19951;SDS011;10137;49.406;19.484;2023-03-21T07:18:49;36.97;;;23.23;;
19951;SDS011;10137;49.406;19.484;2023-03-21T07:21:18;41.87;;;25.57;;
19951;SDS011;10137;49.406;19.484;2023-03-21T07:23:46;37.47;;;22.90;;
19951;SDS011;10137;49.406;19.484;2023-03-21T07:26:15;41.83;;;25.10;;
19951;SDS011;10137;49.406;19.484;2023-03-21T07:28:43;40.73;;;23.03;;
19951;SDS011;10137;49.406;19.484;2023-03-21T07:31:11;34.10;;;20.80;;
19951;SDS011;10137;49.406;19.484;2023-03-21T07:33:43;30.23;;;19.13;;
19951;SDS011;10137;49.406;19.484;2023-03-21T07:36:12;33.20;;;18.70;;
19951;SDS011;10137;49.406;19.484;2023-03-21T07:38:43;27.73;;;17.40;;
19951;SDS011;10137;49.406;19.484;2023-03-21T07:41:11;25.90;;;16.57;;
19951;SDS011;10137;49.406;19.484;2023-03-21T07:43:41;27.33;;;15.60;;
19951;SDS011;10137;49.406;19.484;2023-03-21T07:46:09;21.07;;;14.27;;
19951;SDS011;10137;49.406;19.484;2023-03-21T07:48:47;22.03;;;14.70;;
19951;SDS011;10137;49.406;19.484;2023-03-21T07:51:16;21.97;;;13.67;;
19951;SDS011;10137;49.406;19.484;2023-03-21T07:53:44;20.50;;;13.87;;
19951;SDS011;10137;49.406;19.484;2023-03-21T07:56:14;18.50;;;13.07;;
19951;SDS011;10137;49.406;19.484;2023-03-21T07:58:42;19.23;;;12.60;;
19951;SDS011;10137;49.406;19.484;2023-03-21T08:01:10;17.97;;;12.37;;
19951;SDS011;10137;49.406;19.484;2023-03-21T08:03:39;17.23;;;11.90;;
19951;SDS011;10137;49.406;19.484;2023-03-21T08:06:09;16.33;;;12.10;;
19951;SDS011;10137;49.406;19.484;2023-03-21T08:08:37;17.77;;;12.17;;
19951;SDS011;10137;49.406;19.484;2023-03-21T08:11:05;17.20;;;12.10;;
19951;SDS011;10137;49.406;19.484;2023-03-21T08:13:34;18.47;;;12.37;;
19951;SDS011;10137;49.406;19.484;2023-03-21T08:16:02;17.40;;;11.30;;
19951;SDS011;10137;49.406;19.484;2023-03-21T08:18:30;18.47;;;11.60;;
19951;SDS011;10137;49.406;19.484;2023-03-21T08:20:58;14.93;;;10.53;;
19951;SDS011;10137;49.406;19.484;2023-03-21T08:23:28;18.33;;;11.87;;
19951;SDS011;10137;49.406;19.484;2023-03-21T08:25:56;19.03;;;11.87;;
19951;SDS011;10137;49.406;19.484;2023-03-21T08:28:24;14.83;;;9.37;;
19951;SDS011;10137;49.406;19.484;2023-03-21T08:30:52;12.87;;;9.20;;
19951;SDS011;10137;49.406;19.484;2023-03-21T08:33:20;16.07;;;10.83;;
19951;SDS011;10137;49.406;19.484;2023-03-21T08:35:49;14.40;;;9.83;;
19951;SDS011;10137;49.406;19.484;2023-03-21T08:38:20;14.30;;;9.53;;
19951;SDS011;10137;49.406;19.484;2023-03-21T08:40:50;14.40;;;10.00;;
19951;SDS011;10137;49.406;19.484;2023-03-21T08:43:18;19.03;;;11.53;;
19951;SDS011;10137;49.406;19.484;2023-03-21T08:45:46;12.33;;;9.03;;
19951;SDS011;10137;49.406;19.484;2023-03-21T08:48:14;11.87;;;8.30;;
19951;SDS011;10137;49.406;19.484;2023-03-21T08:50:43;16.97;;;8.93;;
19951;SDS011;10137;49.406;19.484;2023-03-21T08:53:11;17.20;;;9.80;;
19951;SDS011;10137;49.406;19.484;2023-03-21T08:55:40;18.33;;;9.67;;
19951;SDS011;10137;49.406;19.484;2023-03-21T08:58:09;14.93;;;9.37;;
19951;SDS011;10137;49.406;19.484;2023-03-21T09:00:38;19.23;;;10.33;;
19951;SDS011;10137;49.406;19.484;2023-03-21T09:03:06;22.23;;;10.40;;
19951;SDS011;10137;49.406;19.484;2023-03-21T09:05:34;25.90;;;10.13;;
19951;SDS011;10137;49.406;19.484;2023-03-21T09:08:03;15.87;;;8.27;;
19951;SDS011;10137;49.406;19.484;2023-03-21T09:10:31;17.07;;;7.87;;
19951;SDS011;10137;49.406;19.484;2023-03-21T09:12:59;21.37;;;8.47;;
19951;SDS011;10137;49.406;19.484;2023-03-21T09:15:29;20.27;;;9.23;;
19951;SDS011;10137;49.406;19.484;2023-03-21T09:17:58;18.17;;;9.00;;
19951;SDS011;10137;49.406;19.484;2023-03-21T09:20:39;15.33;;;9.40;;
19951;SDS011;10137;49.406;19.484;2023-03-21T09:23:08;16.37;;;9.10;;
19951;SDS011;10137;49.406;19.484;2023-03-21T09:25:38;19.23;;;9.90;;
19951;SDS011;10137;49.406;19.484;2023-03-21T09:28:07;26.30;;;11.00;;
19951;SDS011;10137;49.406;19.484;2023-03-21T09:30:36;17.70;;;10.70;;
19951;SDS011;10137;49.406;19.484;2023-03-21T09:33:05;16.83;;;8.30;;
19951;SDS011;10137;49.406;19.484;2023-03-21T09:35:38;20.27;;;8.77;;
19951;SDS011;10137;49.406;19.484;2023-03-21T09:38:06;11.20;;;7.20;;
19951;SDS011;10137;49.406;19.484;2023-03-21T09:40:41;9.97;;;6.77;;
19951;SDS011;10137;49.406;19.484;2023-03-21T09:43:22;20.97;;;10.77;;
19951;SDS011;10137;49.406;19.484;2023-03-21T09:46:03;17.67;;;10.53;;
19951;SDS011;10137;49.406;19.484;2023-03-21T09:48:37;33.03;;;20.23;;
19951;SDS011;10137;49.406;19.484;2023-03-21T09:51:12;23.77;;;13.07;;
19951;SDS011;10137;49.406;19.484;2023-03-21T09:53:43;21.93;;;12.77;;
19951;SDS011;10137;49.406;19.484;2023-03-21T09:56:15;24.10;;;11.97;;
19951;SDS011;10137;49.406;19.484;2023-03-21T09:58:44;20.60;;;12.37;;
19951;SDS011;10137;49.406;19.484;2023-03-21T10:01:23;20.80;;;13.60;;
19951;SDS011;10137;49.406;19.484;2023-03-21T10:03:53;18.57;;;14.10;;
19951;SDS011;10137;49.406;19.484;2023-03-21T10:06:25;23.43;;;16.90;;
19951;SDS011;10137;49.406;19.484;2023-03-21T10:08:56;30.93;;;12.97;;
19951;SDS011;10137;49.406;19.484;2023-03-21T10:11:27;23.40;;;10.33;;
19951;SDS011;10137;49.406;19.484;2023-03-21T10:14:02;42.23;;;24.67;;
19951;SDS011;10137;49.406;19.484;2023-03-21T10:16:35;29.67;;;12.87;;
19951;SDS011;10137;49.406;19.484;2023-03-21T10:19:09;21.57;;;13.00;;
19951;SDS011;10137;49.406;19.484;2023-03-21T10:21:40;31.83;;;17.73;;
19951;SDS011;10137;49.406;19.484;2023-03-21T10:24:12;29.10;;;10.53;;
19951;SDS011;10137;49.406;19.484;2023-03-21T10:26:43;16.90;;;10.57;;
19951;SDS011;10137;49.406;19.484;2023-03-21T10:29:13;12.93;;;7.47;;
19951;SDS011;10137;49.406;19.484;2023-03-21T10:31:45;18.07;;;8.47;;
19951;SDS011;10137;49.406;19.484;2023-03-21T10:34:15;12.63;;;7.77;;
19951;SDS011;10137;49.406;19.484;2023-03-21T10:36:46;20.87;;;9.23;;
19951;SDS011;10137;49.406;19.484;2023-03-21T10:39:18;18.03;;;8.77;;
19951;SDS011;10137;49.406;19.484;2023-03-21T10:41:51;10.53;;;7.37;;
19951;SDS011;10137;49.406;19.484;2023-03-21T10:44:20;16.20;;;8.93;;
19951;SDS011;10137;49.406;19.484;2023-03-21T10:46:57;11.80;;;7.23;;
19951;SDS011;10137;49.406;19.484;2023-03-21T10:49:32;10.70;;;6.20;;
19951;SDS011;10137;49.406;19.484;2023-03-21T10:52:02;15.10;;;8.40;;
19951;SDS011;10137;49.406;19.484;2023-03-21T10:54:33;13.97;;;7.70;;
19951;SDS011;10137;49.406;19.484;2023-03-21T10:57:03;13.73;;;6.83;;
19951;SDS011;10137;49.406;19.484;2023-03-21T10:59:35;15.17;;;7.00;;
19951;SDS011;10137;49.406;19.484;2023-03-21T11:02:13;15.50;;;7.80;;
19951;SDS011;10137;49.406;19.484;2023-03-21T11:04:44;13.23;;;7.60;;
19951;SDS011;10137;49.406;19.484;2023-03-21T11:07:13;18.87;;;8.03;;
19951;SDS011;10137;49.406;19.484;2023-03-21T11:09:45;17.63;;;7.90;;
19951;SDS011;10137;49.406;19.484;2023-03-21T11:12:16;12.47;;;7.17;;
19951;SDS011;10137;49.406;19.484;2023-03-21T11:14:46;15.80;;;7.00;;
19951;SDS011;10137;49.406;19.484;2023-03-21T11:17:21;14.27;;;7.60;;
19951;SDS011;10137;49.406;19.484;2023-03-21T11:19:51;13.90;;;6.87;;
19951;SDS011;10137;49.406;19.484;2023-03-21T11:22:24;14.00;;;7.37;;
19951;SDS011;10137;49.406;19.484;2023-03-21T11:24:58;17.23;;;7.20;;
19951;SDS011;10137;49.406;19.484;2023-03-21T11:27:46;11.23;;;6.80;;
19951;SDS011;10137;49.406;19.484;2023-03-21T11:30:18;20.53;;;7.23;;
19951;SDS011;10137;49.406;19.484;2023-03-21T11:33:00;11.90;;;7.40;;
19951;SDS011;10137;49.406;19.484;2023-03-21T11:35:31;11.37;;;6.33;;
19951;SDS011;10137;49.406;19.484;2023-03-21T11:38:01;19.57;;;11.43;;
19951;SDS011;10137;49.406;19.484;2023-03-21T11:40:31;22.67;;;11.30;;
19951;SDS011;10137;49.406;19.484;2023-03-21T11:43:00;17.30;;;10.57;;
19951;SDS011;10137;49.406;19.484;2023-03-21T11:45:31;21.10;;;9.87;;
19951;SDS011;10137;49.406;19.484;2023-03-21T11:48:10;18.17;;;9.97;;
19951;SDS011;10137;49.406;19.484;2023-03-21T11:50:40;12.23;;;7.93;;
19951;SDS011;10137;49.406;19.484;2023-03-21T11:53:14;12.33;;;7.47;;
19951;SDS011;10137;49.406;19.484;2023-03-21T11:55:56;22.37;;;16.77;;
19951;SDS011;10137;49.406;19.484;2023-03-21T11:58:33;20.37;;;13.17;;
19951;SDS011;10137;49.406;19.484;2023-03-21T12:01:12;10.90;;;7.70;;
19951;SDS011;10137;49.406;19.484;2023-03-21T12:04:03;16.33;;;8.40;;
19951;SDS011;10137;49.406;19.484;2023-03-21T12:06:44;11.13;;;7.37;;
19951;SDS011;10137;49.406;19.484;2023-03-21T12:09:25;14.33;;;8.53;;
19951;SDS011;10137;49.406;19.484;2023-03-21T12:12:03;32.87;;;15.50;;
19951;SDS011;10137;49.406;19.484;2023-03-21T12:14:42;25.17;;;10.23;;
19951;SDS011;10137;49.406;19.484;2023-03-21T12:17:21;19.87;;;9.07;;
19951;SDS011;10137;49.406;19.484;2023-03-21T12:20:10;14.37;;;8.83;;
19951;SDS011;10137;49.406;19.484;2023-03-21T12:22:50;16.33;;;8.53;;
19951;SDS011;10137;49.406;19.484;2023-03-21T12:25:25;18.50;;;8.47;;
19951;SDS011;10137;49.406;19.484;2023-03-21T12:27:59;20.07;;;9.60;;
19951;SDS011;10137;49.406;19.484;2023-03-21T12:30:39;17.13;;;9.27;;
19951;SDS011;10137;49.406;19.484;2023-03-21T12:36:14;19.63;;;9.83;;
19951;SDS011;10137;49.406;19.484;2023-03-21T12:38:56;22.93;;;9.87;;
19951;SDS011;10137;49.406;19.484;2023-03-21T12:41:35;21.97;;;10.30;;
19951;SDS011;10137;49.406;19.484;2023-03-21T12:44:10;15.37;;;9.00;;
19951;SDS011;10137;49.406;19.484;2023-03-21T12:46:42;13.33;;;8.03;;
19951;SDS011;10137;49.406;19.484;2023-03-21T12:49:14;16.67;;;9.80;;
19951;SDS011;10137;49.406;19.484;2023-03-21T12:51:52;25.67;;;10.83;;
19951;SDS011;10137;49.406;19.484;2023-03-21T12:54:27;17.07;;;10.53;;
19951;SDS011;10137;49.406;19.484;2023-03-21T12:57:00;17.83;;;10.93;;
19951;SDS011;10137;49.406;19.484;2023-03-21T12:59:35;13.53;;;9.63;;
19951;SDS011;10137;49.406;19.484;2023-03-21T13:02:13;15.63;;;11.20;;
19951;SDS011;10137;49.406;19.484;2023-03-21T13:04:52;18.17;;;10.33;;
19951;SDS011;10137;49.406;19.484;2023-03-21T13:07:26;16.47;;;9.93;;
19951;SDS011;10137;49.406;19.484;2023-03-21T13:09:58;18.80;;;9.67;;
19951;SDS011;10137;49.406;19.484;2023-03-21T13:12:41;18.30;;;10.83;;
19951;SDS011;10137;49.406;19.484;2023-03-21T13:18:20;18.23;;;9.67;;
19951;SDS011;10137;49.406;19.484;2023-03-21T13:20:56;17.33;;;9.93;;
19951;SDS011;10137;49.406;19.484;2023-03-21T13:23:33;13.07;;;8.77;;
19951;SDS011;10137;49.406;19.484;2023-03-21T13:26:06;13.93;;;8.57;;
19951;SDS011;10137;49.406;19.484;2023-03-21T13:28:39;14.73;;;9.00;;
19951;SDS011;10137;49.406;19.484;2023-03-21T13:31:17;16.43;;;11.13;;
19951;SDS011;10137;49.406;19.484;2023-03-21T13:33:47;16.97;;;11.50;;
19951;SDS011;10137;49.406;19.484;2023-03-21T13:36:21;14.63;;;9.60;;
19951;SDS011;10137;49.406;19.484;2023-03-21T13:38:53;13.60;;;9.17;;
19951;SDS011;10137;49.406;19.484;2023-03-21T13:41:28;12.03;;;8.80;;
19951;SDS011;10137;49.406;19.484;2023-03-21T13:44:05;21.77;;;9.60;;
19951;SDS011;10137;49.406;19.484;2023-03-21T13:46:50;13.07;;;8.97;;
19951;SDS011;10137;49.406;19.484;2023-03-21T13:49:29;15.43;;;8.63;;
19951;SDS011;10137;49.406;19.484;2023-03-21T13:51:59;14.13;;;9.13;;
19951;SDS011;10137;49.406;19.484;2023-03-21T13:54:44;16.23;;;9.30;;
19951;SDS011;10137;49.406;19.484;2023-03-21T13:57:34;12.50;;;8.20;;
19951;SDS011;10137;49.406;19.484;2023-03-21T14:00:15;13.73;;;9.43;;
19951;SDS011;10137;49.406;19.484;2023-03-21T14:02:52;16.40;;;9.87;;
19951;SDS011;10137;49.406;19.484;2023-03-21T14:05:24;16.83;;;9.87;;
19951;SDS011;10137;49.406;19.484;2023-03-21T14:07:55;14.13;;;9.83;;
19951;SDS011;10137;49.406;19.484;2023-03-21T14:10:29;17.43;;;11.20;;
19951;SDS011;10137;49.406;19.484;2023-03-21T14:13:02;13.93;;;9.53;;
19951;SDS011;10137;49.406;19.484;2023-03-21T14:15:36;18.67;;;11.30;;
19951;SDS011;10137;49.406;19.484;2023-03-21T14:18:07;19.90;;;12.10;;
19951;SDS011;10137;49.406;19.484;2023-03-21T14:20:40;16.63;;;10.77;;
19951;SDS011;10137;49.406;19.484;2023-03-21T14:23:12;16.23;;;10.43;;
19951;SDS011;10137;49.406;19.484;2023-03-21T14:25:43;17.70;;;10.17;;
19951;SDS011;10137;49.406;19.484;2023-03-21T14:28:15;19.87;;;12.87;;
19951;SDS011;10137;49.406;19.484;2023-03-21T14:30:48;15.13;;;10.67;;
19951;SDS011;10137;49.406;19.484;2023-03-21T14:33:24;18.67;;;12.50;;
19951;SDS011;10137;49.406;19.484;2023-03-21T14:35:59;25.13;;;12.83;;
19951;SDS011;10137;49.406;19.484;2023-03-21T14:38:32;21.70;;;12.33;;
19951;SDS011;10137;49.406;19.484;2023-03-21T14:41:04;16.60;;;10.97;;
19951;SDS011;10137;49.406;19.484;2023-03-21T14:43:32;20.70;;;12.20;;
19951;SDS011;10137;49.406;19.484;2023-03-21T14:46:01;29.40;;;17.63;;
19951;SDS011;10137;49.406;19.484;2023-03-21T14:48:30;32.63;;;22.30;;